createdAt,value
2022-08-08T00:02:48.070Z,4.93
2022-08-08T00:06:03.343Z,3.50
2022-08-08T00:09:16.992Z,3.20
2022-08-08T00:12:29.794Z,3.17
2022-08-08T00:15:57.429Z,2.63
2022-08-08T00:19:24.453Z,3.87
2022-08-08T00:22:39.821Z,2.80
2022-08-08T00:25:51.412Z,2.53
2022-08-08T00:29:08.195Z,3.40
2022-08-08T00:32:33.882Z,2.70
2022-08-08T00:35:50.152Z,3.73
2022-08-08T00:41:07.209Z,3.07
2022-08-08T00:42:53.682Z,4.20
2022-08-08T00:46:16.415Z,3.03
2022-08-08T00:49:58.979Z,3.40
2022-08-08T00:53:04.102Z,3.13
2022-08-08T00:56:30.243Z,2.93
2022-08-08T00:59:53.779Z,3.87
2022-08-08T01:04:02.253Z,3.67
2022-08-08T01:07:24.009Z,3.60
2022-08-08T01:10:42.971Z,4.43
2022-08-08T01:14:03.485Z,3.87
2022-08-08T01:17:34.995Z,3.83
2022-08-08T01:21:02.936Z,3.57
2022-08-08T01:24:16.651Z,4.23
2022-08-08T01:28:03.567Z,3.93
2022-08-08T01:32:02.932Z,4.03
2022-08-08T01:35:11.990Z,4.00
2022-08-08T01:38:33.410Z,4.10
2022-08-08T01:42:06.149Z,3.73
2022-08-08T01:45:16.176Z,3.70
2022-08-08T01:48:38.580Z,3.70
2022-08-08T01:53:01.546Z,4.33
2022-08-08T01:56:29.877Z,3.60
2022-08-08T01:59:38.187Z,4.10
2022-08-08T02:03:57.268Z,4.20
2022-08-08T02:07:04.012Z,4.00
2022-08-08T02:10:12.412Z,4.03
2022-08-08T02:13:54.280Z,4.20
2022-08-08T02:16:49.721Z,4.07
2022-08-08T02:20:16.270Z,3.93
2022-08-08T02:23:42.380Z,5.03
2022-08-08T02:26:52.045Z,4.67
2022-08-08T02:30:06.416Z,4.73
2022-08-08T02:34:00.438Z,4.50
2022-08-08T02:37:53.468Z,4.17
2022-08-08T02:41:00.174Z,4.33
2022-08-08T02:44:37.995Z,5.47
2022-08-08T02:48:25.831Z,5.80
2022-08-08T02:51:30.405Z,5.00
2022-08-08T02:55:37.244Z,4.67
2022-08-08T02:59:05.961Z,4.53
2022-08-08T03:02:55.402Z,4.30
2022-08-08T03:06:34.923Z,4.17
2022-08-08T03:10:32.590Z,4.80
2022-08-08T03:15:57.614Z,6.03
2022-08-08T03:17:06.711Z,4.77
2022-08-08T03:20:15.433Z,4.97
2022-08-08T03:23:17.875Z,4.50
2022-08-08T03:26:30.696Z,3.90
2022-08-08T03:29:56.326Z,4.17
2022-08-08T03:33:57.004Z,3.80
2022-08-08T03:36:43.986Z,4.57
2022-08-08T03:39:52.025Z,4.00
2022-08-08T03:43:16.504Z,3.57
2022-08-08T03:46:21.792Z,4.00
2022-08-08T03:49:57.497Z,3.20
2022-08-08T03:52:49.617Z,4.20
2022-08-08T03:55:56.695Z,3.80
2022-08-08T03:59:00.216Z,4.10
2022-08-08T04:02:23.003Z,4.03
2022-08-08T04:05:28.452Z,4.30
2022-08-08T04:08:33.534Z,5.03
2022-08-08T04:11:57.687Z,5.83
2022-08-08T04:15:02.407Z,4.60
2022-08-08T04:18:05.187Z,4.13
2022-08-08T04:21:07.610Z,4.50
2022-08-08T04:24:19.036Z,4.10
2022-08-08T04:28:02.346Z,4.38
2022-08-08T04:30:55.316Z,4.03
2022-08-08T04:33:59.844Z,5.20
2022-08-08T04:37:03.888Z,4.00
2022-08-08T04:40:10.843Z,3.97
2022-08-08T04:43:15.425Z,4.35
2022-08-08T04:46:18.463Z,4.95
2022-08-08T04:49:20.692Z,4.95
2022-08-08T04:52:33.748Z,5.28
2022-08-08T04:55:47.747Z,5.25
2022-08-08T04:58:58.550Z,6.22
2022-08-08T05:02:00.994Z,5.93
2022-08-08T05:05:03.443Z,5.03
2022-08-08T05:08:06.805Z,5.32
2022-08-08T05:11:22.399Z,5.13
2022-08-08T05:14:24.951Z,5.07
2022-08-08T05:17:27.095Z,5.57
2022-08-08T05:20:50.243Z,5.30
2022-08-08T05:24:08.600Z,5.13
2022-08-08T05:27:12.511Z,5.45
2022-08-08T05:30:14.863Z,4.88
2022-08-08T05:33:17.839Z,5.20
2022-08-08T05:36:27.949Z,4.95
2022-08-08T05:39:35.045Z,4.70
2022-08-08T05:42:43.358Z,4.82
2022-08-08T05:45:53.096Z,4.75
2022-08-08T05:48:57.996Z,5.03
2022-08-08T05:52:02.878Z,5.28
2022-08-08T05:55:09.687Z,4.47
2022-08-08T05:58:17.259Z,4.45
2022-08-08T06:01:56.798Z,4.53
2022-08-08T06:04:43.890Z,4.07
2022-08-08T06:08:02.512Z,4.57
2022-08-08T06:11:13.313Z,4.30
2022-08-08T06:14:20.060Z,4.30
2022-08-08T06:17:51.453Z,4.78
2022-08-08T06:20:45.958Z,4.30
2022-08-08T06:24:03.568Z,4.38
2022-08-08T06:27:10.546Z,3.78
2022-08-08T06:30:20.170Z,4.07
2022-08-08T06:34:27.193Z,4.25
2022-08-08T06:37:25.111Z,3.78
2022-08-08T06:40:31.961Z,3.33
2022-08-08T06:43:39.009Z,3.67
2022-08-08T06:46:41.317Z,3.75
2022-08-08T06:49:54.880Z,3.10
2022-08-08T06:53:13.921Z,3.30
2022-08-08T06:56:23.277Z,3.92
2022-08-08T06:59:25.467Z,3.20
2022-08-08T07:02:32.948Z,2.70
2022-08-08T07:05:40.296Z,3.10
2022-08-08T07:08:47.600Z,2.70
2022-08-08T07:11:57.045Z,2.38
2022-08-08T07:15:32.020Z,2.83
2022-08-08T07:18:55.749Z,2.83
2022-08-08T07:22:05.429Z,2.30
2022-08-08T07:25:17.401Z,2.72
2022-08-08T07:28:31.480Z,2.30
2022-08-08T07:31:35.453Z,2.60
2022-08-08T07:34:48.282Z,2.30
2022-08-08T07:38:09.835Z,2.35
2022-08-08T07:41:24.858Z,3.05
2022-08-08T07:44:37.229Z,2.70
2022-08-08T07:47:40.714Z,2.63
2022-08-08T07:50:53.881Z,3.08
2022-08-08T07:54:03.519Z,4.35
2022-08-08T07:57:33.350Z,2.75
2022-08-08T08:00:43.407Z,2.40
2022-08-08T08:04:02.473Z,2.30
2022-08-08T08:07:08.533Z,2.50
2022-08-08T08:10:12.941Z,3.35
2022-08-08T08:13:42.551Z,2.47
2022-08-08T08:16:56.377Z,2.30
2022-08-08T08:20:02.850Z,2.10
2022-08-08T08:23:04.975Z,2.05
2022-08-08T08:26:08.239Z,2.45
2022-08-08T08:29:13.827Z,2.13
2022-08-08T08:32:31.900Z,2.08
2022-08-08T08:36:20.329Z,2.00
2022-08-08T08:39:01.748Z,2.15
2022-08-08T08:42:11.086Z,2.60
2022-08-08T08:45:22.653Z,2.00
2022-08-08T08:48:26.411Z,1.60
2022-08-08T08:51:30.357Z,1.70
2022-08-08T08:54:35.414Z,1.65
2022-08-08T08:57:37.400Z,1.63
2022-08-08T09:01:05.020Z,1.60
2022-08-08T09:04:30.251Z,1.80
2022-08-08T09:07:39.555Z,1.60
2022-08-08T09:10:55.608Z,1.60
2022-08-08T09:14:01.893Z,1.50
2022-08-08T09:17:11.528Z,1.52
2022-08-08T09:21:58.258Z,1.48
2022-08-08T09:23:40.878Z,1.60
2022-08-08T09:26:51.453Z,1.98
2022-08-08T09:30:08.742Z,1.70
2022-08-08T09:33:55.493Z,1.60
2022-08-08T09:36:40.240Z,1.83
2022-08-08T09:40:10.867Z,1.80
2022-08-08T09:44:06.368Z,1.70
2022-08-08T09:48:04.939Z,2.22
2022-08-08T09:50:32.449Z,1.80
2022-08-08T09:53:59.822Z,1.75
2022-08-08T09:57:16.266Z,1.63
2022-08-08T10:00:56.625Z,1.58
2022-08-08T10:03:46.110Z,1.70
2022-08-08T10:06:58.885Z,2.03
2022-08-08T10:10:03.188Z,1.80
2022-08-08T10:13:35.479Z,1.77
2022-08-08T10:16:39.843Z,1.73
2022-08-08T10:19:57.226Z,1.75
2022-08-08T10:23:03.476Z,1.98
2022-08-08T10:26:12.316Z,1.98
2022-08-08T10:29:43.826Z,1.80
2022-08-08T10:33:00.446Z,1.63
2022-08-08T10:36:20.734Z,2.20
2022-08-08T10:39:43.166Z,1.60
2022-08-08T10:43:02.393Z,1.90
2022-08-08T10:46:29.557Z,1.85
2022-08-08T10:50:01.337Z,2.28
2022-08-08T10:53:07.612Z,1.95
2022-08-08T10:56:26.914Z,1.88
2022-08-08T10:59:39.720Z,2.20
2022-08-08T11:02:42.898Z,1.90
2022-08-08T11:06:01.227Z,1.77
2022-08-08T11:09:15.499Z,1.70
2022-08-08T11:12:22.596Z,2.13
2022-08-08T11:15:30.772Z,1.95
2022-08-08T11:18:36.504Z,1.75
2022-08-08T11:21:55.883Z,2.08
2022-08-08T11:25:14.255Z,1.75
2022-08-08T11:28:30.396Z,1.73
2022-08-08T11:31:48.445Z,1.60
2022-08-08T11:35:23.300Z,2.13
2022-08-08T11:38:39.021Z,1.70
2022-08-08T11:41:43.221Z,4.50
2022-08-08T11:44:46.007Z,1.67
2022-08-08T11:48:04.994Z,1.60
2022-08-08T11:51:29.868Z,2.03
2022-08-08T11:54:34.273Z,1.80
2022-08-08T11:57:40.350Z,1.50
2022-08-08T12:01:01.574Z,1.92
2022-08-08T12:04:14.687Z,1.90
2022-08-08T12:07:17.862Z,2.40
2022-08-08T12:10:25.757Z,2.15
2022-08-08T12:13:38.441Z,1.83
2022-08-08T12:16:53.262Z,1.98
2022-08-08T12:19:58.518Z,1.80
2022-08-08T12:23:01.082Z,1.90
2022-08-08T12:26:17.384Z,2.20
2022-08-08T12:29:40.908Z,2.10
2022-08-08T12:32:47.945Z,1.75
2022-08-08T12:35:52.808Z,2.40
2022-08-08T12:38:55.635Z,1.70
2022-08-08T12:42:01.894Z,2.33
2022-08-08T12:45:53.866Z,1.65
2022-08-08T12:48:36.461Z,1.63
2022-08-08T12:51:53.796Z,1.80
2022-08-08T12:55:14.258Z,1.77
2022-08-08T12:58:47.131Z,1.55
2022-08-08T13:01:54.430Z,1.73
2022-08-08T13:05:05.889Z,2.45
2022-08-08T13:08:20.448Z,2.20
2022-08-08T13:11:28.772Z,1.65
2022-08-08T13:14:53.455Z,2.10
2022-08-08T13:18:09.013Z,3.97
2022-08-08T13:21:14.846Z,2.42
2022-08-08T13:24:38.650Z,2.10
2022-08-08T13:27:40.654Z,1.75
2022-08-08T13:30:43.756Z,1.80
2022-08-08T13:33:49.636Z,1.48
2022-08-08T13:36:53.878Z,1.70
2022-08-08T13:39:58.739Z,1.63
2022-08-08T13:43:01.039Z,1.90
2022-08-08T13:46:27.019Z,1.70
2022-08-08T13:50:35.035Z,1.88
2022-08-08T13:52:55.040Z,2.28
2022-08-08T13:56:01.028Z,1.88
2022-08-08T13:59:06.517Z,2.00
2022-08-08T14:02:20.743Z,1.85
2022-08-08T14:05:34.273Z,1.77
2022-08-08T14:08:56.876Z,1.70
2022-08-08T14:12:00.137Z,1.65
2022-08-08T14:15:04.333Z,2.00
2022-08-08T14:18:36.139Z,1.75
2022-08-08T14:21:52.299Z,1.75
2022-08-08T14:25:02.595Z,1.63
2022-08-08T14:28:10.122Z,2.08
2022-08-08T14:31:23.296Z,1.52
2022-08-08T14:34:34.670Z,1.63
2022-08-08T14:37:42.703Z,2.60
2022-08-08T14:41:48.767Z,2.05
2022-08-08T14:44:57.049Z,1.65
2022-08-08T14:48:02.699Z,1.60
2022-08-08T14:51:06.859Z,1.95
2022-08-08T14:54:10.361Z,2.20
2022-08-08T14:57:16.162Z,2.15
2022-08-08T15:00:18.753Z,1.63
2022-08-08T15:03:21.609Z,4.20
2022-08-08T15:06:24.443Z,3.25
2022-08-08T15:09:26.581Z,1.95
2022-08-08T15:12:29.145Z,1.92
2022-08-08T15:16:01.848Z,1.50
2022-08-08T15:18:53.630Z,1.67
2022-08-08T15:21:55.986Z,2.00
2022-08-08T15:25:00.005Z,2.22
2022-08-08T15:28:32.420Z,1.90
2022-08-08T15:31:56.339Z,2.33
2022-08-08T15:34:47.014Z,1.65
2022-08-08T15:37:49.322Z,1.70
2022-08-08T15:40:53.105Z,2.33
2022-08-08T15:44:00.817Z,2.10
2022-08-08T15:47:03.537Z,1.98
2022-08-08T15:50:10.533Z,1.70
2022-08-08T15:53:23.736Z,1.80
2022-08-08T15:56:25.711Z,2.35
2022-08-08T16:00:05.837Z,2.03
2022-08-08T16:02:50.976Z,1.73
2022-08-08T16:06:02.076Z,1.52
2022-08-08T16:13:03.732Z,2.70
2022-08-08T16:13:11.364Z,1.38
2022-08-08T16:15:59.082Z,1.73
2022-08-08T16:19:06.099Z,1.80
2022-08-08T16:22:08.000Z,1.50
2022-08-08T16:25:10.216Z,1.70
2022-08-08T16:28:34.034Z,1.70
2022-08-08T16:31:34.673Z,2.00
2022-08-08T16:34:39.080Z,2.00
2022-08-08T16:37:42.973Z,2.13
2022-08-08T16:40:49.343Z,3.42
2022-08-08T16:43:53.016Z,1.80
2022-08-08T16:46:56.399Z,1.65
2022-08-08T16:50:01.410Z,2.08
2022-08-08T16:55:01.180Z,3.03
2022-08-08T16:57:03.962Z,4.13
2022-08-08T17:00:26.692Z,2.08
2022-08-08T17:04:00.894Z,2.25
2022-08-08T17:06:51.389Z,3.30
2022-08-08T17:09:53.823Z,3.97
2022-08-08T17:12:55.994Z,2.05
2022-08-08T17:15:58.464Z,1.77
2022-08-08T17:19:00.633Z,1.60
2022-08-08T17:22:03.683Z,1.75
2022-08-08T17:25:06.154Z,1.88
2022-08-08T17:28:09.384Z,1.67
2022-08-08T17:31:44.924Z,1.52
2022-08-08T17:35:04.468Z,1.60
2022-08-08T17:37:59.929Z,2.40
2022-08-08T17:41:06.292Z,2.22
2022-08-08T17:44:11.019Z,1.45
2022-08-08T17:47:16.250Z,2.00
2022-08-08T17:50:31.608Z,2.30
2022-08-08T17:53:43.356Z,1.90
2022-08-08T17:56:52.983Z,1.85
2022-08-08T17:59:58.950Z,2.00
2022-08-08T18:03:12.971Z,3.00
2022-08-08T18:06:30.601Z,3.05
2022-08-08T18:09:38.027Z,5.20
2022-08-08T18:12:46.094Z,3.97
2022-08-08T18:16:04.254Z,3.38
2022-08-08T18:19:07.010Z,3.83
2022-08-08T18:22:50.338Z,16.73
2022-08-08T18:25:37.363Z,14.70
2022-08-08T18:28:54.803Z,5.38
2022-08-08T18:32:05.170Z,7.13
2022-08-08T18:35:15.339Z,9.10
2022-08-08T18:38:19.359Z,16.55
2022-08-08T18:41:51.653Z,13.70
2022-08-08T18:44:54.722Z,14.75
2022-08-08T18:47:58.061Z,5.57
2022-08-08T18:51:01.642Z,5.30
2022-08-08T18:54:13.696Z,13.20
2022-08-08T18:57:26.801Z,9.23
2022-08-08T19:00:28.890Z,6.97
2022-08-08T19:04:09.908Z,6.63
2022-08-08T19:06:54.165Z,4.60
2022-08-08T19:10:13.699Z,4.35
2022-08-08T19:13:21.643Z,3.28
2022-08-08T19:16:31.809Z,4.40
2022-08-08T19:19:34.125Z,5.18
2022-08-08T19:22:37.754Z,4.85
2022-08-08T19:26:02.351Z,4.07
2022-08-08T19:29:10.680Z,4.50
2022-08-08T19:32:19.560Z,6.15
2022-08-08T19:35:25.634Z,2.67
2022-08-08T19:38:46.582Z,2.90
2022-08-08T19:41:52.905Z,2.90
2022-08-08T19:44:54.887Z,3.08
2022-08-08T19:48:28.253Z,3.00
2022-08-08T19:51:34.918Z,2.85
2022-08-08T19:54:45.363Z,2.95
2022-08-08T19:57:47.835Z,5.35
2022-08-08T20:01:17.429Z,5.07
2022-08-08T20:04:23.757Z,3.38
2022-08-08T20:08:26.924Z,4.05
2022-08-08T20:10:48.384Z,3.05
2022-08-08T20:14:34.927Z,3.47
2022-08-08T20:17:12.768Z,2.97
2022-08-08T20:20:29.330Z,3.00
2022-08-08T20:23:33.577Z,3.58
2022-08-08T20:26:38.489Z,3.22
2022-08-08T20:29:55.371Z,4.22
2022-08-08T20:33:08.196Z,3.67
2022-08-08T20:36:24.140Z,3.80
2022-08-08T20:39:39.338Z,3.03
2022-08-08T20:42:54.127Z,3.22
2022-08-08T20:46:09.847Z,4.22
2022-08-08T20:49:13.085Z,4.97
2022-08-08T20:52:15.514Z,4.30
2022-08-08T20:55:25.525Z,3.95
2022-08-08T20:58:28.278Z,5.45
2022-08-08T21:01:33.171Z,5.25
2022-08-08T21:05:00.936Z,3.05
2022-08-08T21:08:36.586Z,3.35
2022-08-08T21:11:50.515Z,3.42
2022-08-08T21:14:49.087Z,3.03
2022-08-08T21:17:56.251Z,3.40
2022-08-08T21:21:20.575Z,3.53
2022-08-08T21:24:37.820Z,3.58
2022-08-08T21:28:09.523Z,3.65
2022-08-08T21:31:23.323Z,3.50
2022-08-08T21:34:25.678Z,4.18
2022-08-08T21:37:55.567Z,3.78
2022-08-08T21:40:57.144Z,4.13
2022-08-08T21:44:00.714Z,4.22
2022-08-08T21:48:07.860Z,4.53
2022-08-08T21:50:28.280Z,8.10
2022-08-08T21:54:31.288Z,12.57
2022-08-08T21:56:52.769Z,3.65
2022-08-08T22:00:03.812Z,3.30
2022-08-08T22:03:07.151Z,3.28
2022-08-08T22:06:30.912Z,3.10
2022-08-08T22:09:37.392Z,3.17
2022-08-08T22:12:43.340Z,3.35
2022-08-08T22:15:59.109Z,3.47
2022-08-08T22:19:08.939Z,2.88
2022-08-08T22:22:18.119Z,3.47
2022-08-08T22:25:25.783Z,4.32
2022-08-08T22:29:12.841Z,11.77
2022-08-08T22:31:58.624Z,4.97
2022-08-08T22:35:05.434Z,4.53
2022-08-08T22:38:07.366Z,4.85
2022-08-08T22:41:16.279Z,5.50
2022-08-08T22:44:24.338Z,5.80
2022-08-08T22:47:34.288Z,4.47
2022-08-08T22:50:40.424Z,3.60
2022-08-08T22:54:31.104Z,3.72
2022-08-08T22:57:11.407Z,3.50
2022-08-08T23:00:20.405Z,4.20
2022-08-08T23:03:22.418Z,3.92
2022-08-08T23:06:25.637Z,4.18
2022-08-08T23:09:30.351Z,3.90
2022-08-08T23:12:40.624Z,3.92
2022-08-08T23:16:38.664Z,3.92
2022-08-08T23:19:08.814Z,4.18
2022-08-08T23:22:11.696Z,3.85
2022-08-08T23:25:14.196Z,3.67
2022-08-08T23:28:20.406Z,3.95
2022-08-08T23:31:22.813Z,4.47
2022-08-08T23:34:24.798Z,3.45
2022-08-08T23:38:01.285Z,3.95
2022-08-08T23:40:49.647Z,3.50
2022-08-08T23:43:57.103Z,3.85
2022-08-08T23:49:06.340Z,3.40
2022-08-08T23:50:31.060Z,3.95
2022-08-08T23:54:05.532Z,3.78
2022-08-08T23:56:57.497Z,3.38
